createdAt,value
2023-01-07T04:02:42.683Z,9.50
2023-01-07T04:06:00.984Z,9.47
2023-01-07T04:09:12.478Z,9.47
2023-01-07T04:12:22.531Z,9.47
2023-01-07T04:15:32.839Z,9.45
2023-01-07T04:18:44.034Z,9.42
2023-01-07T04:21:53.808Z,9.42
2023-01-07T04:25:03.887Z,9.40
2023-01-07T04:28:14.926Z,9.40
2023-01-07T04:31:24.789Z,9.38
2023-01-07T04:34:36.016Z,9.38
2023-01-07T04:37:46.942Z,9.38
2023-01-07T04:40:56.842Z,9.35
2023-01-07T04:44:07.093Z,9.36
2023-01-07T04:47:17.039Z,9.35
2023-01-07T04:50:28.870Z,9.34
2023-01-07T04:53:39.132Z,9.27
2023-01-07T04:56:49.594Z,9.28
2023-01-07T04:59:59.729Z,9.31
2023-01-07T05:03:09.633Z,9.33
2023-01-07T05:06:21.634Z,9.34
2023-01-07T05:09:31.576Z,9.34
2023-01-07T05:12:41.325Z,9.31
2023-01-07T05:15:53.462Z,9.21
2023-01-07T05:19:04.184Z,9.17
2023-01-07T05:22:19.789Z,9.16
2023-01-07T05:25:29.599Z,9.20
2023-01-07T05:28:40.240Z,9.20
2023-01-07T05:31:50.102Z,9.17
2023-01-07T05:35:01.921Z,9.23
2023-01-07T05:38:13.221Z,9.29
2023-01-07T05:41:23.098Z,9.33
2023-01-07T05:44:32.953Z,9.35
2023-01-07T05:47:43.929Z,9.35
2023-01-07T05:50:53.764Z,9.31
2023-01-07T05:54:04.740Z,9.23
2023-01-07T05:57:14.470Z,9.19
2023-01-07T08:34:37.701Z,9.57
2023-01-07T08:37:47.520Z,9.65
2023-01-07T08:40:57.319Z,9.55
2023-01-07T08:44:07.151Z,9.62
2023-01-07T08:47:16.903Z,9.44
2023-01-07T08:50:29.283Z,9.56
2023-01-07T08:53:39.223Z,9.53
2023-01-07T08:56:48.941Z,9.64
2023-01-07T08:59:58.748Z,9.88
2023-01-07T09:03:08.749Z,10.09
2023-01-07T09:06:19.827Z,10.22
2023-01-07T09:09:29.620Z,10.35
2023-01-07T09:12:39.845Z,10.28
2023-01-07T09:15:49.725Z,10.43
2023-01-07T09:18:59.525Z,10.59
2023-01-07T09:22:10.599Z,10.71
2023-01-07T09:25:20.320Z,10.73
2023-01-07T09:28:30.092Z,10.67
2023-01-07T09:31:39.858Z,10.66
2023-01-07T09:34:49.709Z,10.72
2023-01-07T09:38:00.955Z,10.66
2023-01-07T09:41:28.115Z,10.84
2023-01-07T09:44:54.912Z,10.91
2023-01-07T09:48:12.105Z,11.12
2023-01-07T09:51:27.213Z,10.97
2023-01-07T09:54:39.616Z,10.81
2023-01-07T09:57:52.688Z,10.89
2023-01-07T10:01:13.188Z,10.87
2023-01-07T10:04:34.364Z,11.07
2023-01-07T10:07:52.878Z,11.20
2023-01-07T10:11:37.093Z,11.13
2023-01-07T10:15:01.567Z,11.04
2023-01-07T10:18:31.409Z,11.13
2023-01-07T10:21:44.057Z,11.24
2023-01-07T10:24:58.672Z,11.27
2023-01-07T10:28:16.020Z,11.25
2023-01-07T10:31:28.025Z,11.25
2023-01-07T10:34:44.573Z,10.86
2023-01-07T10:37:58.931Z,10.92
2023-01-07T10:41:14.174Z,11.01
2023-01-07T10:44:44.378Z,11.02
2023-01-07T10:48:10.493Z,11.23
2023-01-07T10:51:37.888Z,11.36
2023-01-07T10:55:04.220Z,11.32
2023-01-07T10:58:14.147Z,11.01
2023-01-07T11:01:28.258Z,11.23
2023-01-07T11:04:38.038Z,11.13
2023-01-07T11:07:51.979Z,11.09
2023-01-07T11:11:01.849Z,11.16
2023-01-07T11:14:14.880Z,11.14
2023-01-07T11:17:33.356Z,11.22
2023-01-07T11:20:48.830Z,11.18
2023-01-07T11:23:58.569Z,11.22
2023-01-07T11:27:15.650Z,11.37
2023-01-07T11:30:27.980Z,11.16
2023-01-07T11:34:02.929Z,11.03
2023-01-07T11:37:14.119Z,11.10
2023-01-07T11:40:27.776Z,11.17
2023-01-07T11:43:40.690Z,10.88
2023-01-07T11:46:50.790Z,10.90
2023-01-07T11:50:02.019Z,10.72
2023-01-07T11:53:25.594Z,10.81
2023-01-07T11:56:35.783Z,10.96
2023-01-07T11:59:45.514Z,11.00
2023-01-07T12:03:04.411Z,10.96
2023-01-07T12:06:21.271Z,11.01
2023-01-07T12:09:37.822Z,10.84
2023-01-07T12:12:47.618Z,10.81
2023-01-07T12:16:01.801Z,10.85
2023-01-07T12:19:23.800Z,10.84
2023-01-07T12:22:47.226Z,10.65
2023-01-07T12:26:07.247Z,10.80
2023-01-07T12:29:32.000Z,10.91
2023-01-07T12:32:53.377Z,10.97
2023-01-07T12:36:09.456Z,10.83
2023-01-07T12:39:26.909Z,10.84
2023-01-07T12:42:41.667Z,11.03
2023-01-07T12:45:55.388Z,11.02
2023-01-07T12:49:13.049Z,11.12
2023-01-07T12:52:32.617Z,11.32
2023-01-07T12:55:47.695Z,11.43
2023-01-07T12:59:02.799Z,11.35
2023-01-07T13:02:25.984Z,11.43
2023-01-07T13:05:43.068Z,11.49
2023-01-07T13:09:00.975Z,11.62
2023-01-07T13:12:41.624Z,11.48
2023-01-07T13:15:53.264Z,11.42
2023-01-07T13:19:03.026Z,11.25
2023-01-07T13:22:20.503Z,11.39
2023-01-07T13:25:40.664Z,11.53
2023-01-07T13:29:06.969Z,11.41
2023-01-07T13:32:31.735Z,11.56
2023-01-07T13:35:51.039Z,11.42
2023-01-07T13:39:17.573Z,11.40
2023-01-07T13:42:39.194Z,11.25
2023-01-07T13:45:56.560Z,11.33
2023-01-07T13:49:07.093Z,11.42
2023-01-07T13:52:20.369Z,11.21
2023-01-07T13:55:36.120Z,11.25
2023-01-07T13:58:47.147Z,11.31
2023-01-07T14:02:18.436Z,11.12
2023-01-07T14:05:30.383Z,11.09
2023-01-07T14:08:40.265Z,11.27
2023-01-07T14:12:09.904Z,11.41
2023-01-07T14:15:38.805Z,11.43
2023-01-07T14:19:03.980Z,11.32
2023-01-07T14:22:24.600Z,11.23
2023-01-07T14:25:48.148Z,11.25
2023-01-07T14:29:19.449Z,11.05
2023-01-07T14:32:33.393Z,10.95
2023-01-07T14:35:53.529Z,11.11
2023-01-07T14:39:03.788Z,11.05
2023-01-07T14:42:27.387Z,11.03
2023-01-07T14:45:53.382Z,10.82
2023-01-07T14:49:32.036Z,10.95
2023-01-07T14:53:13.216Z,10.96
2023-01-07T14:56:37.412Z,10.88
2023-01-07T15:00:11.927Z,10.84
2023-01-07T15:03:39.216Z,10.84
2023-01-07T15:06:50.208Z,10.74
2023-01-07T15:10:17.297Z,10.71
2023-01-07T15:13:39.409Z,10.59
2023-01-07T15:16:53.327Z,10.48
2023-01-07T15:20:06.379Z,10.40
2023-01-07T15:23:24.568Z,10.29
2023-01-07T15:26:46.079Z,10.17
2023-01-07T15:30:02.704Z,10.06
2023-01-07T15:33:33.747Z,9.90
2023-01-07T15:36:48.030Z,9.78
2023-01-07T15:39:58.878Z,9.62
2023-01-07T15:43:23.253Z,9.43
2023-01-07T15:46:34.278Z,9.25
2023-01-07T15:49:44.131Z,9.08
2023-01-07T15:52:55.502Z,8.89
2023-01-07T15:56:08.425Z,8.74
2023-01-07T15:59:25.667Z,8.57
2023-01-07T16:02:42.724Z,8.42
2023-01-07T16:05:53.425Z,8.23
2023-01-07T16:09:15.046Z,8.08
2023-01-07T16:12:30.045Z,7.94
2023-01-07T16:15:41.444Z,7.78
2023-01-07T16:18:56.500Z,7.67
2023-01-07T16:22:07.032Z,7.57
2023-01-07T16:25:24.347Z,7.43
2023-01-07T16:28:37.279Z,7.33
2023-01-07T16:31:48.908Z,7.19
2023-01-07T16:35:05.169Z,7.14
2023-01-07T16:38:17.387Z,7.06
2023-01-07T16:41:28.876Z,7.04
2023-01-07T16:45:01.500Z,6.94
2023-01-07T16:48:21.347Z,6.86
2023-01-07T16:51:36.240Z,6.80
2023-01-07T16:54:46.809Z,6.75
2023-01-07T16:57:56.671Z,6.64
2023-01-07T17:01:07.390Z,6.52
2023-01-07T17:04:21.919Z,6.43
2023-01-07T17:07:32.079Z,6.37
2023-01-07T17:10:42.166Z,6.25
2023-01-07T17:13:52.214Z,6.19
2023-01-07T17:17:06.590Z,6.16
2023-01-07T17:20:22.607Z,6.13
2023-01-07T17:23:34.226Z,6.07
2023-01-07T17:26:44.049Z,6.01
2023-01-07T17:29:54.318Z,5.97
2023-01-07T17:33:04.380Z,5.91
2023-01-07T17:36:18.297Z,5.83
2023-01-07T17:39:28.718Z,5.66
2023-01-07T17:42:49.753Z,5.61
2023-01-07T17:46:00.591Z,5.58
2023-01-07T17:49:12.022Z,5.53
2023-01-07T17:52:23.095Z,5.47
2023-01-07T17:55:36.545Z,5.40
2023-01-07T17:58:49.180Z,5.38
2023-01-07T18:02:00.513Z,5.36
2023-01-07T18:05:15.584Z,5.35
2023-01-07T18:08:26.683Z,5.33
2023-01-07T18:11:50.899Z,5.30
2023-01-07T18:15:02.460Z,5.28
2023-01-07T18:18:12.481Z,5.24
2023-01-07T18:21:22.187Z,5.17
2023-01-07T18:24:34.697Z,5.18
2023-01-07T18:27:48.007Z,5.19
2023-01-07T18:30:57.727Z,5.19
2023-01-07T18:34:08.059Z,5.24
2023-01-07T18:37:18.021Z,5.33
2023-01-07T18:40:29.326Z,5.37
2023-01-07T18:43:39.300Z,5.43
2023-01-07T18:46:49.149Z,5.46
2023-01-07T18:49:59.138Z,5.48
2023-01-07T18:53:09.542Z,5.47
2023-01-07T18:56:20.588Z,5.44
2023-01-07T18:59:30.295Z,5.46
2023-01-07T19:02:40.092Z,5.52
2023-01-07T19:05:49.781Z,5.56
2023-01-07T19:08:59.467Z,5.58
2023-01-07T19:12:12.132Z,5.67
2023-01-07T19:15:21.846Z,5.77
2023-01-07T19:18:31.628Z,5.82
2023-01-07T19:21:42.675Z,6.03
2023-01-07T19:24:52.403Z,6.20
2023-01-07T19:28:03.427Z,6.40
2023-01-07T19:31:13.962Z,6.68
2023-01-07T19:34:23.679Z,6.91
2023-01-07T19:37:33.403Z,7.42
2023-01-07T19:40:44.694Z,7.72
2023-01-07T19:43:59.188Z,7.96
2023-01-07T19:47:09.351Z,8.15
2023-01-07T19:50:19.059Z,8.33
2023-01-07T19:53:30.317Z,8.45
2023-01-07T19:56:40.799Z,8.57
2023-01-07T19:59:51.813Z,8.69
2023-01-07T20:03:01.696Z,8.83
2023-01-07T20:06:12.799Z,9.14
2023-01-07T20:09:22.981Z,9.29
2023-01-07T20:12:33.140Z,9.36
2023-01-07T20:15:44.091Z,9.41
2023-01-07T20:18:55.987Z,9.32
2023-01-07T20:22:05.703Z,9.34
2023-01-07T20:25:15.561Z,9.43
2023-01-07T20:28:25.376Z,9.52
2023-01-07T20:31:36.768Z,9.55
2023-01-07T20:34:46.582Z,9.63
2023-01-07T20:37:56.352Z,9.66
2023-01-07T20:41:06.736Z,9.63
2023-01-07T20:44:16.450Z,9.65
2023-01-07T20:47:27.746Z,9.75
2023-01-07T20:50:39.557Z,9.66
2023-01-07T20:53:49.353Z,9.57
2023-01-07T20:56:59.259Z,9.52
2023-01-07T21:00:10.271Z,9.51
2023-01-07T21:03:21.236Z,9.47
2023-01-07T21:06:31.296Z,9.53
2023-01-07T21:09:43.331Z,9.67
2023-01-07T21:12:53.275Z,9.58
2023-01-07T21:16:04.317Z,9.55
2023-01-07T21:19:15.350Z,9.51
2023-01-07T21:22:25.080Z,9.54
2023-01-07T21:25:35.052Z,9.64
2023-01-07T21:28:44.878Z,9.63
2023-01-07T21:31:54.882Z,9.74
2023-01-07T21:45:14.400Z,9.79
2023-01-07T21:48:24.164Z,9.79
2023-01-07T21:51:33.883Z,9.85
2023-01-07T21:54:43.617Z,9.94
2023-01-07T21:57:53.442Z,10.01
2023-01-07T22:01:06.023Z,10.05
2023-01-07T22:04:15.958Z,10.04
2023-01-07T22:07:25.990Z,10.00
2023-01-07T22:10:35.756Z,10.00
2023-01-07T22:13:45.860Z,10.00
2023-01-07T22:16:57.309Z,10.01
2023-01-07T22:20:08.107Z,10.02
2023-01-07T22:23:18.082Z,9.99
2023-01-07T22:26:27.869Z,9.94
2023-01-07T22:29:37.662Z,9.96
2023-01-07T22:32:48.699Z,9.89
2023-01-07T22:35:59.714Z,9.86
2023-01-07T22:39:14.850Z,9.92
2023-01-07T22:42:30.018Z,9.88
2023-01-07T22:45:43.336Z,9.84
2023-01-07T22:48:54.703Z,9.81
2023-01-07T22:52:06.339Z,9.81
2023-01-07T22:55:16.986Z,9.77
2023-01-07T22:58:27.210Z,9.70
2023-01-07T23:01:37.815Z,9.70
2023-01-07T23:04:49.041Z,9.76
2023-01-07T23:07:59.224Z,9.78
2023-01-07T23:11:10.589Z,9.72
2023-01-07T23:14:22.252Z,9.75
2023-01-07T23:17:31.904Z,9.74
2023-01-07T23:20:44.066Z,9.73
2023-01-07T23:23:53.830Z,9.69
2023-01-07T23:27:03.547Z,9.60
2023-01-07T23:30:14.047Z,9.57
2023-01-07T23:33:26.724Z,9.62
2023-01-07T23:36:38.856Z,9.61
2023-01-07T23:39:48.532Z,9.61
